Ercan, Cyprus

1:28 PM EET on October 31, 2014 (GMT +0200)
Ercan | Change Station
CLOSE
Current Station
Airport
Location: Ercan,
Elevation: 299 ft
Nearby Weather Stations

Elev 299 ft 35.15 °N, 33.50 °E | Updated 38 minutes ago

Scattered Clouds
Scattered Clouds
73 °F
Feels Like 73 °F
N
4
Wind Variable Wind from North

Today
High -- | Low -- °F
--% Chance of Precip.
Yesterday
High -- | Low -- °F
Precip. -- in
6:05 AM 4:52 PM
First Quarter, 54% visible
Pressure 29.86 in
Visibility 6.2 miles
Clouds Few 2500 ft
Scattered Clouds 3000 ft
Dew Point 50 °F
Humidity 44%
Rainfall 0.00 in
Snow Depth Not available.
UV 4 out of 12
Pollen Not available.
Air Quality Not available.
Flu Activity Not available.
METAR LCEN 311050Z 01003KT 9999 FEW025CB SCT030 23/10 Q1011 NOSIG

More Conditions Fewer Conditions

Pressure 29.86 in
Visibility 6.2 miles
Clouds Few 2500 ft
Scattered Clouds 3000 ft
Dew Point 50 °F
Humidity 44%
Rainfall 0.00 in
Snow Depth Not available.
UV 4 out of 12
Pollen Not available.
Air Quality Not available.
Flu Activity Not available.
METAR LCEN 311050Z 01003KT 9999 FEW025CB SCT030 23/10 Q1011 NOSIG

More Conditions Fewer Conditions

10-Day Weather Forecast

Almanac

Astronomy

Oct. 31, 2014 Rise Set
Actual Time
Civil Twilight
Nautical Twilight
Astronomical Twilight
Moon
Length of Visible Light
Length of Day
Tomorrow will be .
, % of the Moon is Illuminated

Today's Extremes

Country Highs Country Lows

Community

WunderPhotos

Upload Photos

1,766,581 photos uploaded!

WunderBlogs® & News

Nearby

Air Quality

  Air Quality AQ Index Pollutant
Not available.

Snow Depth

Station Depth Elevation

Earthquake Activity

City Distance Mag. Time & Date
Minimum magnitude displayed is 2.5.

Coastal Water Temperatures

Place Temperature

Nearby Weather Stations